sensor_id;sensor_type;location;lat;lon;timestamp;temperature;humidity
36450;DHT22;22475;51.390;7.180;2022-07-29T00:01:37;20.50;88.50
36450;DHT22;22475;51.390;7.180;2022-07-29T00:04:04;20.50;88.50
36450;DHT22;22475;51.390;7.180;2022-07-29T00:06:31;20.50;88.40
36450;DHT22;22475;51.390;7.180;2022-07-29T00:08:58;20.50;88.40
36450;DHT22;22475;51.390;7.180;2022-07-29T00:11:26;20.50;88.30
36450;DHT22;22475;51.390;7.180;2022-07-29T00:13:53;20.50;88.30
36450;DHT22;22475;51.390;7.180;2022-07-29T00:16:20;20.50;88.30
36450;DHT22;22475;51.390;7.180;2022-07-29T00:18:47;20.60;88.30
36450;DHT22;22475;51.390;7.180;2022-07-29T00:21:14;20.50;88.20
36450;DHT22;22475;51.390;7.180;2022-07-29T00:23:41;20.50;88.20
36450;DHT22;22475;51.390;7.180;2022-07-29T00:26:08;20.50;88.10
36450;DHT22;22475;51.390;7.180;2022-07-29T00:28:36;20.50;88.10
36450;DHT22;22475;51.390;7.180;2022-07-29T00:31:03;20.50;88.00
36450;DHT22;22475;51.390;7.180;2022-07-29T00:33:30;20.50;88.00
36450;DHT22;22475;51.390;7.180;2022-07-29T00:35:57;20.50;88.00
36450;DHT22;22475;51.390;7.180;2022-07-29T00:38:23;20.50;88.00
36450;DHT22;22475;51.390;7.180;2022-07-29T00:40:50;20.50;87.90
36450;DHT22;22475;51.390;7.180;2022-07-29T00:43:17;20.50;88.00
36450;DHT22;22475;51.390;7.180;2022-07-29T00:45:45;20.50;87.90
36450;DHT22;22475;51.390;7.180;2022-07-29T00:48:12;20.50;87.90
36450;DHT22;22475;51.390;7.180;2022-07-29T00:50:39;20.50;87.90
36450;DHT22;22475;51.390;7.180;2022-07-29T00:53:07;20.50;87.90
36450;DHT22;22475;51.390;7.180;2022-07-29T00:55:34;20.50;87.80
36450;DHT22;22475;51.390;7.180;2022-07-29T00:58:02;20.50;87.80
36450;DHT22;22475;51.390;7.180;2022-07-29T01:00:29;20.50;87.80
36450;DHT22;22475;51.390;7.180;2022-07-29T01:02:58;20.50;87.70
36450;DHT22;22475;51.390;7.180;2022-07-29T01:05:26;20.60;87.80
36450;DHT22;22475;51.390;7.180;2022-07-29T01:07:57;20.50;87.70
36450;DHT22;22475;51.390;7.180;2022-07-29T01:10:24;20.50;87.70
36450;DHT22;22475;51.390;7.180;2022-07-29T01:12:53;20.50;87.90
36450;DHT22;22475;51.390;7.180;2022-07-29T01:15:21;20.50;87.70
36450;DHT22;22475;51.390;7.180;2022-07-29T01:18:01;20.50;87.60
36450;DHT22;22475;51.390;7.180;2022-07-29T01:20:39;20.50;87.60
36450;DHT22;22475;51.390;7.180;2022-07-29T01:23:34;20.50;87.70
36450;DHT22;22475;51.390;7.180;2022-07-29T01:26:19;20.50;87.70
36450;DHT22;22475;51.390;7.180;2022-07-29T01:29:01;20.50;87.70
36450;DHT22;22475;51.390;7.180;2022-07-29T01:31:35;20.50;87.80
36450;DHT22;22475;51.390;7.180;2022-07-29T01:34:07;20.50;87.80
36450;DHT22;22475;51.390;7.180;2022-07-29T01:36:36;20.50;87.80
36450;DHT22;22475;51.390;7.180;2022-07-29T01:39:06;20.50;87.90
36450;DHT22;22475;51.390;7.180;2022-07-29T01:41:37;20.50;87.90
36450;DHT22;22475;51.390;7.180;2022-07-29T01:44:13;20.50;87.70
36450;DHT22;22475;51.390;7.180;2022-07-29T01:46:44;20.50;87.70
36450;DHT22;22475;51.390;7.180;2022-07-29T01:49:16;20.50;87.70
36450;DHT22;22475;51.390;7.180;2022-07-29T01:51:46;20.50;87.70
36450;DHT22;22475;51.390;7.180;2022-07-29T01:54:18;20.50;87.80
36450;DHT22;22475;51.390;7.180;2022-07-29T01:56:48;20.50;87.70
36450;DHT22;22475;51.390;7.180;2022-07-29T01:59:18;20.50;87.80
36450;DHT22;22475;51.390;7.180;2022-07-29T02:01:46;20.50;87.70
36450;DHT22;22475;51.390;7.180;2022-07-29T02:04:15;20.50;87.70
36450;DHT22;22475;51.390;7.180;2022-07-29T02:06:44;20.50;87.70
36450;DHT22;22475;51.390;7.180;2022-07-29T02:09:13;20.50;87.70
36450;DHT22;22475;51.390;7.180;2022-07-29T02:11:48;20.50;87.80
36450;DHT22;22475;51.390;7.180;2022-07-29T02:14:18;20.50;87.70
36450;DHT22;22475;51.390;7.180;2022-07-29T02:16:46;20.50;88.50
36450;DHT22;22475;51.390;7.180;2022-07-29T02:19:14;20.50;87.70
36450;DHT22;22475;51.390;7.180;2022-07-29T02:21:45;20.50;87.70
36450;DHT22;22475;51.390;7.180;2022-07-29T02:24:12;20.50;87.70
36450;DHT22;22475;51.390;7.180;2022-07-29T02:26:42;20.50;87.80
36450;DHT22;22475;51.390;7.180;2022-07-29T02:29:10;20.50;87.80
36450;DHT22;22475;51.390;7.180;2022-07-29T02:31:41;20.50;87.80
36450;DHT22;22475;51.390;7.180;2022-07-29T02:34:12;20.50;87.70
36450;DHT22;22475;51.390;7.180;2022-07-29T02:36:41;20.50;87.70
36450;DHT22;22475;51.390;7.180;2022-07-29T02:39:11;20.50;87.70
36450;DHT22;22475;51.390;7.180;2022-07-29T02:41:42;20.50;87.70
36450;DHT22;22475;51.390;7.180;2022-07-29T02:44:13;20.50;87.70
36450;DHT22;22475;51.390;7.180;2022-07-29T02:46:48;20.50;87.70
36450;DHT22;22475;51.390;7.180;2022-07-29T02:49:33;20.50;87.60
36450;DHT22;22475;51.390;7.180;2022-07-29T02:52:08;20.50;87.60
36450;DHT22;22475;51.390;7.180;2022-07-29T02:54:39;20.50;87.60
36450;DHT22;22475;51.390;7.180;2022-07-29T02:57:13;20.50;87.50
36450;DHT22;22475;51.390;7.180;2022-07-29T02:59:42;20.50;87.50
36450;DHT22;22475;51.390;7.180;2022-07-29T03:02:14;20.50;87.50
36450;DHT22;22475;51.390;7.180;2022-07-29T03:04:42;20.50;87.50
36450;DHT22;22475;51.390;7.180;2022-07-29T03:07:11;20.50;87.60
36450;DHT22;22475;51.390;7.180;2022-07-29T03:09:39;20.50;87.60
36450;DHT22;22475;51.390;7.180;2022-07-29T03:12:08;20.50;87.60
36450;DHT22;22475;51.390;7.180;2022-07-29T03:14:36;20.50;87.60
36450;DHT22;22475;51.390;7.180;2022-07-29T03:17:03;20.50;88.40
36450;DHT22;22475;51.390;7.180;2022-07-29T03:19:32;20.50;87.70
36450;DHT22;22475;51.390;7.180;2022-07-29T03:21:59;20.40;87.60
36450;DHT22;22475;51.390;7.180;2022-07-29T03:24:29;20.40;87.70
36450;DHT22;22475;51.390;7.180;2022-07-29T03:26:57;20.50;87.70
36450;DHT22;22475;51.390;7.180;2022-07-29T03:29:24;20.50;87.70
36450;DHT22;22475;51.390;7.180;2022-07-29T03:31:51;20.50;87.80
36450;DHT22;22475;51.390;7.180;2022-07-29T03:34:19;20.40;87.60
36450;DHT22;22475;51.390;7.180;2022-07-29T03:36:48;20.50;87.70
36450;DHT22;22475;51.390;7.180;2022-07-29T03:39:19;20.50;87.70
36450;DHT22;22475;51.390;7.180;2022-07-29T03:41:49;20.50;87.70
36450;DHT22;22475;51.390;7.180;2022-07-29T03:44:17;20.50;87.70
36450;DHT22;22475;51.390;7.180;2022-07-29T03:46:46;20.50;87.70
36450;DHT22;22475;51.390;7.180;2022-07-29T03:49:15;20.40;87.70
36450;DHT22;22475;51.390;7.180;2022-07-29T03:51:43;20.50;87.70
36450;DHT22;22475;51.390;7.180;2022-07-29T03:54:11;20.50;87.70
36450;DHT22;22475;51.390;7.180;2022-07-29T03:56:42;20.50;87.70
36450;DHT22;22475;51.390;7.180;2022-07-29T03:59:12;20.50;87.70
36450;DHT22;22475;51.390;7.180;2022-07-29T04:01:42;20.40;87.60
36450;DHT22;22475;51.390;7.180;2022-07-29T04:04:09;20.50;87.80
36450;DHT22;22475;51.390;7.180;2022-07-29T04:06:40;20.50;87.80
36450;DHT22;22475;51.390;7.180;2022-07-29T04:09:08;20.50;87.90
36450;DHT22;22475;51.390;7.180;2022-07-29T04:11:38;20.40;87.80
36450;DHT22;22475;51.390;7.180;2022-07-29T04:14:06;20.50;87.90
36450;DHT22;22475;51.390;7.180;2022-07-29T04:16:33;20.40;87.80
36450;DHT22;22475;51.390;7.180;2022-07-29T04:19:00;20.40;87.80
36450;DHT22;22475;51.390;7.180;2022-07-29T04:21:27;20.40;87.80
36450;DHT22;22475;51.390;7.180;2022-07-29T04:23:54;20.40;87.90
36450;DHT22;22475;51.390;7.180;2022-07-29T04:26:21;20.40;87.80
36450;DHT22;22475;51.390;7.180;2022-07-29T04:28:50;20.50;87.90
36450;DHT22;22475;51.390;7.180;2022-07-29T04:31:20;20.40;87.80
36450;DHT22;22475;51.390;7.180;2022-07-29T04:33:47;20.40;87.90
36450;DHT22;22475;51.390;7.180;2022-07-29T04:36:14;20.40;87.80
36450;DHT22;22475;51.390;7.180;2022-07-29T04:38:41;20.40;87.80
36450;DHT22;22475;51.390;7.180;2022-07-29T04:41:08;20.40;87.70
36450;DHT22;22475;51.390;7.180;2022-07-29T04:43:36;20.40;87.70
36450;DHT22;22475;51.390;7.180;2022-07-29T04:46:06;20.50;87.70
36450;DHT22;22475;51.390;7.180;2022-07-29T04:48:33;20.40;87.20
36450;DHT22;22475;51.390;7.180;2022-07-29T04:51:00;20.50;87.20
36450;DHT22;22475;51.390;7.180;2022-07-29T04:53:27;20.50;87.10
36450;DHT22;22475;51.390;7.180;2022-07-29T04:55:54;20.50;87.00
36450;DHT22;22475;51.390;7.180;2022-07-29T04:58:20;20.50;86.80
36450;DHT22;22475;51.390;7.180;2022-07-29T05:00:49;20.40;86.70
36450;DHT22;22475;51.390;7.180;2022-07-29T05:03:17;20.40;86.40
36450;DHT22;22475;51.390;7.180;2022-07-29T05:05:45;20.40;86.40
36450;DHT22;22475;51.390;7.180;2022-07-29T05:08:11;20.50;86.40
36450;DHT22;22475;51.390;7.180;2022-07-29T05:10:38;20.40;86.40
36450;DHT22;22475;51.390;7.180;2022-07-29T05:13:06;20.40;86.60
36450;DHT22;22475;51.390;7.180;2022-07-29T05:15:33;20.40;86.60
36450;DHT22;22475;51.390;7.180;2022-07-29T05:18:00;20.40;86.40
36450;DHT22;22475;51.390;7.180;2022-07-29T05:20:29;20.40;86.30
36450;DHT22;22475;51.390;7.180;2022-07-29T05:22:57;20.40;86.30
36450;DHT22;22475;51.390;7.180;2022-07-29T05:25:24;20.40;86.30
36450;DHT22;22475;51.390;7.180;2022-07-29T05:27:51;20.40;86.10
36450;DHT22;22475;51.390;7.180;2022-07-29T05:30:19;20.40;86.10
36450;DHT22;22475;51.390;7.180;2022-07-29T05:32:45;20.40;86.20
36450;DHT22;22475;51.390;7.180;2022-07-29T05:35:13;20.40;86.30
36450;DHT22;22475;51.390;7.180;2022-07-29T05:37:41;20.40;86.40
36450;DHT22;22475;51.390;7.180;2022-07-29T05:40:09;20.40;86.60
36450;DHT22;22475;51.390;7.180;2022-07-29T05:42:36;20.40;86.70
36450;DHT22;22475;51.390;7.180;2022-07-29T05:45:03;20.40;86.80
36450;DHT22;22475;51.390;7.180;2022-07-29T05:47:30;20.50;87.00
36450;DHT22;22475;51.390;7.180;2022-07-29T05:49:57;20.40;87.00
36450;DHT22;22475;51.390;7.180;2022-07-29T05:52:24;20.40;87.10
36450;DHT22;22475;51.390;7.180;2022-07-29T05:54:52;20.50;87.20
36450;DHT22;22475;51.390;7.180;2022-07-29T05:57:22;20.40;87.20
36450;DHT22;22475;51.390;7.180;2022-07-29T05:59:50;20.40;87.30
36450;DHT22;22475;51.390;7.180;2022-07-29T06:02:17;20.50;87.40
36450;DHT22;22475;51.390;7.180;2022-07-29T06:04:44;20.40;87.40
36450;DHT22;22475;51.390;7.180;2022-07-29T06:07:11;20.40;87.50
36450;DHT22;22475;51.390;7.180;2022-07-29T06:09:38;20.50;87.50
36450;DHT22;22475;51.390;7.180;2022-07-29T06:12:06;20.40;87.50
36450;DHT22;22475;51.390;7.180;2022-07-29T06:14:33;20.40;87.40
36450;DHT22;22475;51.390;7.180;2022-07-29T06:17:01;20.40;87.40
36450;DHT22;22475;51.390;7.180;2022-07-29T06:19:28;20.40;87.40
36450;DHT22;22475;51.390;7.180;2022-07-29T06:21:55;20.40;87.20
36450;DHT22;22475;51.390;7.180;2022-07-29T06:24:22;20.40;86.70
36450;DHT22;22475;51.390;7.180;2022-07-29T06:26:48;20.50;86.50
36450;DHT22;22475;51.390;7.180;2022-07-29T06:29:17;20.40;86.30
36450;DHT22;22475;51.390;7.180;2022-07-29T06:31:43;20.40;86.40
36450;DHT22;22475;51.390;7.180;2022-07-29T06:34:11;20.40;86.60
36450;DHT22;22475;51.390;7.180;2022-07-29T06:36:41;20.40;86.80
36450;DHT22;22475;51.390;7.180;2022-07-29T06:39:08;20.40;86.90
36450;DHT22;22475;51.390;7.180;2022-07-29T06:41:35;20.50;87.00
36450;DHT22;22475;51.390;7.180;2022-07-29T06:44:02;20.40;86.90
36450;DHT22;22475;51.390;7.180;2022-07-29T06:46:31;20.50;86.90
36450;DHT22;22475;51.390;7.180;2022-07-29T06:48:58;20.40;86.70
36450;DHT22;22475;51.390;7.180;2022-07-29T06:51:26;20.40;86.30
36450;DHT22;22475;51.390;7.180;2022-07-29T06:53:54;20.40;86.20
36450;DHT22;22475;51.390;7.180;2022-07-29T06:56:21;20.40;86.10
36450;DHT22;22475;51.390;7.180;2022-07-29T06:58:47;20.40;86.20
36450;DHT22;22475;51.390;7.180;2022-07-29T07:01:15;20.40;86.30
36450;DHT22;22475;51.390;7.180;2022-07-29T07:03:43;20.40;86.50
36450;DHT22;22475;51.390;7.180;2022-07-29T07:06:10;20.40;86.50
36450;DHT22;22475;51.390;7.180;2022-07-29T07:08:37;20.40;86.60
36450;DHT22;22475;51.390;7.180;2022-07-29T07:11:03;20.40;86.80
36450;DHT22;22475;51.390;7.180;2022-07-29T07:13:31;20.40;86.70
36450;DHT22;22475;51.390;7.180;2022-07-29T07:16:00;20.50;86.50
36450;DHT22;22475;51.390;7.180;2022-07-29T07:18:27;20.40;86.40
36450;DHT22;22475;51.390;7.180;2022-07-29T07:20:56;20.40;86.50
36450;DHT22;22475;51.390;7.180;2022-07-29T07:23:23;20.40;86.70
36450;DHT22;22475;51.390;7.180;2022-07-29T07:25:50;20.40;86.70
36450;DHT22;22475;51.390;7.180;2022-07-29T07:28:17;20.40;86.80
36450;DHT22;22475;51.390;7.180;2022-07-29T07:30:45;20.50;86.80
36450;DHT22;22475;51.390;7.180;2022-07-29T07:33:12;20.40;86.80
36450;DHT22;22475;51.390;7.180;2022-07-29T07:35:39;20.40;86.70
36450;DHT22;22475;51.390;7.180;2022-07-29T07:38:07;20.40;86.80
36450;DHT22;22475;51.390;7.180;2022-07-29T07:40:34;20.40;86.80
36450;DHT22;22475;51.390;7.180;2022-07-29T07:43:01;20.40;86.90
36450;DHT22;22475;51.390;7.180;2022-07-29T07:45:28;20.50;87.00
36450;DHT22;22475;51.390;7.180;2022-07-29T07:47:55;20.50;86.90
36450;DHT22;22475;51.390;7.180;2022-07-29T07:50:22;20.40;86.80
36450;DHT22;22475;51.390;7.180;2022-07-29T07:52:51;20.40;86.50
36450;DHT22;22475;51.390;7.180;2022-07-29T07:55:19;20.40;86.20
36450;DHT22;22475;51.390;7.180;2022-07-29T07:57:46;20.40;86.00
36450;DHT22;22475;51.390;7.180;2022-07-29T08:00:14;20.40;86.00
36450;DHT22;22475;51.390;7.180;2022-07-29T08:02:42;20.50;85.90
36450;DHT22;22475;51.390;7.180;2022-07-29T08:05:10;20.50;86.00
36450;DHT22;22475;51.390;7.180;2022-07-29T08:07:41;20.40;86.10
36450;DHT22;22475;51.390;7.180;2022-07-29T08:10:08;20.40;86.10
36450;DHT22;22475;51.390;7.180;2022-07-29T08:12:37;20.40;86.20
36450;DHT22;22475;51.390;7.180;2022-07-29T08:15:04;20.40;86.40
36450;DHT22;22475;51.390;7.180;2022-07-29T08:17:33;20.40;86.50
36450;DHT22;22475;51.390;7.180;2022-07-29T08:20:00;20.50;86.60
36450;DHT22;22475;51.390;7.180;2022-07-29T08:22:27;20.40;86.70
36450;DHT22;22475;51.390;7.180;2022-07-29T08:24:54;20.40;86.70
36450;DHT22;22475;51.390;7.180;2022-07-29T08:27:21;20.40;86.70
36450;DHT22;22475;51.390;7.180;2022-07-29T08:29:50;20.40;86.80
36450;DHT22;22475;51.390;7.180;2022-07-29T08:32:16;20.40;86.80
36450;DHT22;22475;51.390;7.180;2022-07-29T08:34:43;20.40;86.90
36450;DHT22;22475;51.390;7.180;2022-07-29T08:37:12;20.50;86.90
36450;DHT22;22475;51.390;7.180;2022-07-29T08:39:38;20.40;86.90
36450;DHT22;22475;51.390;7.180;2022-07-29T08:42:06;20.40;86.80
36450;DHT22;22475;51.390;7.180;2022-07-29T08:44:35;20.40;86.80
36450;DHT22;22475;51.390;7.180;2022-07-29T08:47:04;20.40;86.80
36450;DHT22;22475;51.390;7.180;2022-07-29T08:49:33;20.50;86.90
36450;DHT22;22475;51.390;7.180;2022-07-29T08:52:01;20.40;86.90
36450;DHT22;22475;51.390;7.180;2022-07-29T08:54:28;20.40;86.90
36450;DHT22;22475;51.390;7.180;2022-07-29T08:56:55;20.50;87.00
36450;DHT22;22475;51.390;7.180;2022-07-29T08:59:25;20.40;87.00
36450;DHT22;22475;51.390;7.180;2022-07-29T09:01:54;20.40;87.10
36450;DHT22;22475;51.390;7.180;2022-07-29T09:04:29;20.40;87.10
36450;DHT22;22475;51.390;7.180;2022-07-29T09:07:00;20.40;87.10
36450;DHT22;22475;51.390;7.180;2022-07-29T09:09:31;20.40;87.20
36450;DHT22;22475;51.390;7.180;2022-07-29T09:11:59;20.50;87.30
36450;DHT22;22475;51.390;7.180;2022-07-29T09:14:27;20.40;87.30
36450;DHT22;22475;51.390;7.180;2022-07-29T09:16:55;20.50;87.40
36450;DHT22;22475;51.390;7.180;2022-07-29T09:19:24;20.40;87.40
36450;DHT22;22475;51.390;7.180;2022-07-29T09:21:54;20.40;87.40
36450;DHT22;22475;51.390;7.180;2022-07-29T09:24:27;20.50;87.60
36450;DHT22;22475;51.390;7.180;2022-07-29T09:27:02;20.40;87.50
36450;DHT22;22475;51.390;7.180;2022-07-29T09:29:29;20.40;87.50
36450;DHT22;22475;51.390;7.180;2022-07-29T09:31:57;20.50;87.40
36450;DHT22;22475;51.390;7.180;2022-07-29T09:34:25;20.50;87.30
36450;DHT22;22475;51.390;7.180;2022-07-29T09:36:54;20.40;87.20
36450;DHT22;22475;51.390;7.180;2022-07-29T09:39:28;20.40;87.10
36450;DHT22;22475;51.390;7.180;2022-07-29T09:41:57;20.40;87.00
36450;DHT22;22475;51.390;7.180;2022-07-29T09:44:25;20.40;86.90
36450;DHT22;22475;51.390;7.180;2022-07-29T09:46:57;20.40;86.90
36450;DHT22;22475;51.390;7.180;2022-07-29T09:49:28;20.40;86.90
36450;DHT22;22475;51.390;7.180;2022-07-29T09:52:07;20.40;86.90
36450;DHT22;22475;51.390;7.180;2022-07-29T09:54:34;20.40;86.90
36450;DHT22;22475;51.390;7.180;2022-07-29T09:57:04;20.40;87.00
36450;DHT22;22475;51.390;7.180;2022-07-29T09:59:32;20.40;87.00
36450;DHT22;22475;51.390;7.180;2022-07-29T10:01:59;20.40;86.90
36450;DHT22;22475;51.390;7.180;2022-07-29T10:04:37;20.40;86.80
36450;DHT22;22475;51.390;7.180;2022-07-29T10:07:06;20.40;86.80
36450;DHT22;22475;51.390;7.180;2022-07-29T10:09:34;20.40;87.60
36450;DHT22;22475;51.390;7.180;2022-07-29T10:12:09;20.40;86.90
36450;DHT22;22475;51.390;7.180;2022-07-29T10:14:38;20.40;87.10
36450;DHT22;22475;51.390;7.180;2022-07-29T10:17:06;20.40;86.70
36450;DHT22;22475;51.390;7.180;2022-07-29T10:19:34;20.40;86.50
36450;DHT22;22475;51.390;7.180;2022-07-29T10:22:05;20.50;86.50
36450;DHT22;22475;51.390;7.180;2022-07-29T10:24:34;20.40;86.50
36450;DHT22;22475;51.390;7.180;2022-07-29T10:27:02;20.40;86.60
36450;DHT22;22475;51.390;7.180;2022-07-29T10:29:29;20.40;86.70
36450;DHT22;22475;51.390;7.180;2022-07-29T10:32:21;20.40;86.80
36450;DHT22;22475;51.390;7.180;2022-07-29T10:35:06;20.40;87.00
36450;DHT22;22475;51.390;7.180;2022-07-29T10:37:52;20.40;87.10
36450;DHT22;22475;51.390;7.180;2022-07-29T10:40:30;20.40;87.20
36450;DHT22;22475;51.390;7.180;2022-07-29T10:43:20;20.40;87.30
36450;DHT22;22475;51.390;7.180;2022-07-29T10:45:49;20.40;87.40
36450;DHT22;22475;51.390;7.180;2022-07-29T10:48:21;20.40;87.40
36450;DHT22;22475;51.390;7.180;2022-07-29T10:50:54;20.40;87.50
36450;DHT22;22475;51.390;7.180;2022-07-29T10:53:21;20.40;87.60
36450;DHT22;22475;51.390;7.180;2022-07-29T10:55:50;20.40;87.60
36450;DHT22;22475;51.390;7.180;2022-07-29T10:58:19;20.40;87.70
36450;DHT22;22475;51.390;7.180;2022-07-29T11:00:46;20.40;87.70
36450;DHT22;22475;51.390;7.180;2022-07-29T11:03:42;20.50;87.80
36450;DHT22;22475;51.390;7.180;2022-07-29T11:06:10;20.40;87.80
36450;DHT22;22475;51.390;7.180;2022-07-29T11:08:37;20.40;87.70
36450;DHT22;22475;51.390;7.180;2022-07-29T11:11:38;20.40;87.70
36450;DHT22;22475;51.390;7.180;2022-07-29T11:14:06;20.40;87.60
36450;DHT22;22475;51.390;7.180;2022-07-29T11:16:59;20.40;87.60
36450;DHT22;22475;51.390;7.180;2022-07-29T11:19:28;20.40;87.80
36450;DHT22;22475;51.390;7.180;2022-07-29T11:21:55;20.40;87.80
36450;DHT22;22475;51.390;7.180;2022-07-29T11:24:23;20.40;87.80
36450;DHT22;22475;51.390;7.180;2022-07-29T11:27:15;20.40;88.70
36450;DHT22;22475;51.390;7.180;2022-07-29T11:29:53;20.40;88.10
36450;DHT22;22475;51.390;7.180;2022-07-29T11:32:21;20.40;88.10
36450;DHT22;22475;51.390;7.180;2022-07-29T11:37:32;20.40;88.20
36450;DHT22;22475;51.390;7.180;2022-07-29T11:40:13;20.50;89.10
36450;DHT22;22475;51.390;7.180;2022-07-29T11:42:44;20.40;88.40
36450;DHT22;22475;51.390;7.180;2022-07-29T11:45:14;20.40;88.40
36450;DHT22;22475;51.390;7.180;2022-07-29T11:47:46;20.40;88.50
36450;DHT22;22475;51.390;7.180;2022-07-29T11:50:15;20.40;89.30
36450;DHT22;22475;51.390;7.180;2022-07-29T11:52:45;20.40;88.60
36450;DHT22;22475;51.390;7.180;2022-07-29T11:55:14;20.50;88.80
36450;DHT22;22475;51.390;7.180;2022-07-29T11:57:50;20.50;88.80
36450;DHT22;22475;51.390;7.180;2022-07-29T12:00:26;20.40;88.80
36450;DHT22;22475;51.390;7.180;2022-07-29T12:02:54;20.40;88.90
36450;DHT22;22475;51.390;7.180;2022-07-29T12:05:30;20.40;88.90
36450;DHT22;22475;51.390;7.180;2022-07-29T12:08:11;20.40;89.00
36450;DHT22;22475;51.390;7.180;2022-07-29T12:10:39;20.50;89.00
36450;DHT22;22475;51.390;7.180;2022-07-29T12:13:07;20.40;89.00
36450;DHT22;22475;51.390;7.180;2022-07-29T12:15:35;20.40;89.00
36450;DHT22;22475;51.390;7.180;2022-07-29T12:18:13;20.50;89.80
36450;DHT22;22475;51.390;7.180;2022-07-29T12:20:40;20.40;89.10
36450;DHT22;22475;51.390;7.180;2022-07-29T12:23:08;20.40;89.10
36450;DHT22;22475;51.390;7.180;2022-07-29T12:25:37;20.40;89.10
36450;DHT22;22475;51.390;7.180;2022-07-29T12:28:07;20.40;89.10
36450;DHT22;22475;51.390;7.180;2022-07-29T12:30:41;20.40;89.10
36450;DHT22;22475;51.390;7.180;2022-07-29T12:33:17;20.50;89.20
36450;DHT22;22475;51.390;7.180;2022-07-29T12:35:47;20.50;89.30
36450;DHT22;22475;51.390;7.180;2022-07-29T12:38:14;20.50;89.20
36450;DHT22;22475;51.390;7.180;2022-07-29T12:40:42;20.50;89.20
36450;DHT22;22475;51.390;7.180;2022-07-29T12:43:13;20.50;89.20
36450;DHT22;22475;51.390;7.180;2022-07-29T12:45:41;20.50;89.30
36450;DHT22;22475;51.390;7.180;2022-07-29T12:48:08;20.50;89.30
36450;DHT22;22475;51.390;7.180;2022-07-29T12:50:36;20.50;89.10
36450;DHT22;22475;51.390;7.180;2022-07-29T12:53:11;20.50;89.20
36450;DHT22;22475;51.390;7.180;2022-07-29T12:55:43;20.50;89.30
36450;DHT22;22475;51.390;7.180;2022-07-29T12:58:26;20.50;89.30
36450;DHT22;22475;51.390;7.180;2022-07-29T13:01:09;20.50;89.30
36450;DHT22;22475;51.390;7.180;2022-07-29T13:03:44;20.50;89.30
36450;DHT22;22475;51.390;7.180;2022-07-29T13:06:31;20.50;89.30
36450;DHT22;22475;51.390;7.180;2022-07-29T13:09:05;20.50;89.30
36450;DHT22;22475;51.390;7.180;2022-07-29T13:11:35;20.50;89.30
36450;DHT22;22475;51.390;7.180;2022-07-29T13:14:04;20.50;89.30
36450;DHT22;22475;51.390;7.180;2022-07-29T13:16:31;20.50;89.30
36450;DHT22;22475;51.390;7.180;2022-07-29T13:19:09;20.50;89.30
36450;DHT22;22475;51.390;7.180;2022-07-29T13:21:37;20.50;89.40
36450;DHT22;22475;51.390;7.180;2022-07-29T13:24:06;20.50;89.40
36450;DHT22;22475;51.390;7.180;2022-07-29T13:26:33;20.50;89.40
36450;DHT22;22475;51.390;7.180;2022-07-29T13:29:00;20.50;89.40
36450;DHT22;22475;51.390;7.180;2022-07-29T13:31:28;20.50;89.50
36450;DHT22;22475;51.390;7.180;2022-07-29T13:33:55;20.50;89.50
36450;DHT22;22475;51.390;7.180;2022-07-29T13:36:22;20.50;89.50
36450;DHT22;22475;51.390;7.180;2022-07-29T13:38:49;20.50;89.50
36450;DHT22;22475;51.390;7.180;2022-07-29T13:41:15;20.50;89.50
36450;DHT22;22475;51.390;7.180;2022-07-29T13:43:42;20.50;89.60
36450;DHT22;22475;51.390;7.180;2022-07-29T13:46:10;20.50;89.60
36450;DHT22;22475;51.390;7.180;2022-07-29T13:48:38;20.50;89.60
36450;DHT22;22475;51.390;7.180;2022-07-29T13:51:05;20.60;89.70
36450;DHT22;22475;51.390;7.180;2022-07-29T13:53:32;20.60;89.70
36450;DHT22;22475;51.390;7.180;2022-07-29T13:55:59;20.50;89.60
36450;DHT22;22475;51.390;7.180;2022-07-29T13:58:25;20.60;89.70
36450;DHT22;22475;51.390;7.180;2022-07-29T14:00:52;20.60;89.70
36450;DHT22;22475;51.390;7.180;2022-07-29T14:03:19;20.60;90.20
36450;DHT22;22475;51.390;7.180;2022-07-29T14:05:47;20.60;89.70
36450;DHT22;22475;51.390;7.180;2022-07-29T14:08:14;20.50;89.70
36450;DHT22;22475;51.390;7.180;2022-07-29T14:10:41;20.50;89.70
36450;DHT22;22475;51.390;7.180;2022-07-29T14:13:08;20.50;89.70
36450;DHT22;22475;51.390;7.180;2022-07-29T14:15:35;20.60;89.80
36450;DHT22;22475;51.390;7.180;2022-07-29T14:18:02;20.60;89.80
36450;DHT22;22475;51.390;7.180;2022-07-29T14:20:29;20.60;89.80
36450;DHT22;22475;51.390;7.180;2022-07-29T14:22:58;20.60;89.80
36450;DHT22;22475;51.390;7.180;2022-07-29T14:25:24;20.60;89.80
36450;DHT22;22475;51.390;7.180;2022-07-29T14:27:51;20.60;89.80
36450;DHT22;22475;51.390;7.180;2022-07-29T14:30:19;20.60;89.80
36450;DHT22;22475;51.390;7.180;2022-07-29T14:32:46;20.60;89.80
36450;DHT22;22475;51.390;7.180;2022-07-29T14:35:13;20.60;89.80
36450;DHT22;22475;51.390;7.180;2022-07-29T14:37:41;20.60;89.80
36450;DHT22;22475;51.390;7.180;2022-07-29T14:40:10;20.60;89.80
36450;DHT22;22475;51.390;7.180;2022-07-29T14:42:37;20.60;89.90
36450;DHT22;22475;51.390;7.180;2022-07-29T14:45:06;20.60;90.00
36450;DHT22;22475;51.390;7.180;2022-07-29T14:47:33;20.60;90.00
36450;DHT22;22475;51.390;7.180;2022-07-29T14:50:00;20.60;90.00
36450;DHT22;22475;51.390;7.180;2022-07-29T14:52:28;20.60;90.20
36450;DHT22;22475;51.390;7.180;2022-07-29T14:54:54;20.60;90.20
36450;DHT22;22475;51.390;7.180;2022-07-29T14:57:23;20.60;90.20
36450;DHT22;22475;51.390;7.180;2022-07-29T14:59:50;20.60;90.60
36450;DHT22;22475;51.390;7.180;2022-07-29T15:02:17;20.60;90.30
36450;DHT22;22475;51.390;7.180;2022-07-29T15:04:44;20.70;90.30
36450;DHT22;22475;51.390;7.180;2022-07-29T15:07:13;20.60;90.30
36450;DHT22;22475;51.390;7.180;2022-07-29T15:09:41;20.70;90.40
36450;DHT22;22475;51.390;7.180;2022-07-29T15:12:08;20.70;90.40
36450;DHT22;22475;51.390;7.180;2022-07-29T15:14:37;20.70;90.40
36450;DHT22;22475;51.390;7.180;2022-07-29T15:17:04;20.70;90.40
36450;DHT22;22475;51.390;7.180;2022-07-29T15:19:31;20.70;90.40
36450;DHT22;22475;51.390;7.180;2022-07-29T15:21:58;20.70;90.40
36450;DHT22;22475;51.390;7.180;2022-07-29T15:24:25;20.70;90.40
36450;DHT22;22475;51.390;7.180;2022-07-29T15:26:52;20.70;90.50
36450;DHT22;22475;51.390;7.180;2022-07-29T15:29:19;20.70;90.50
36450;DHT22;22475;51.390;7.180;2022-07-29T15:31:48;20.70;90.50
36450;DHT22;22475;51.390;7.180;2022-07-29T15:34:15;20.70;90.50
36450;DHT22;22475;51.390;7.180;2022-07-29T15:36:43;20.70;90.50
36450;DHT22;22475;51.390;7.180;2022-07-29T15:39:10;20.70;90.50
36450;DHT22;22475;51.390;7.180;2022-07-29T15:41:37;20.70;90.50
36450;DHT22;22475;51.390;7.180;2022-07-29T15:44:04;20.70;90.50
36450;DHT22;22475;51.390;7.180;2022-07-29T15:46:30;20.70;90.50